This is the latest recevied weather packets stored in our database for station/object EFIV. If no packets are shown the sender has not sent any weather packets the latest 10 day(s).
| Time | Temp. | Humidity | Pressure | Rain* | Wind** | Luminosity | Snow |
|---|---|---|---|---|---|---|---|
| 1787809450 | 5° C | 78% | 1029.4 hPa | - | - | - | - |
| 1787808250 | 3.89° C | 81% | 1029.6 hPa | - | - | - | - |
| 1787807048 | 2.78° C | 84% | 1029.7 hPa | - | - | - | - |
| 1787805847 | 2.22° C | 87% | 1029.7 hPa | - | - | - | - |
| 1787804647 | 1.67° C | 88% | 1029.9 hPa | - | - | - | - |
| 1787803447 | 1.11° C | 91% | 1029.9 hPa | - | - | - | - |
| 1787802246 | 1.11° C | 92% | 1029.9 hPa | - | - | - | - |
| 1787801047 | 0.56° C | 92% | 1030 hPa | - | - | - | - |
| 1787799849 | 0.56° C | 94% | 1030 hPa | - | - | - | - |
| 1787798649 | 0° C | 94% | 1030 hPa | - | - | - | - |
| 1787797445 | 0° C | 94% | 1030 hPa | - | - | - | - |
| 1787796246 | 0° C | 94% | 1029.9 hPa | - | - | - | - |
| 1787795048 | 0° C | 94% | 1030 hPa | - | - | - | - |
| 1787792649 | 0° C | 94% | 1030.1 hPa | - | - | - | - |
| 1787791445 | 0° C | 95% | 1030 hPa | - | - | - | - |
| 1787790248 | 0° C | 94% | 1029.9 hPa | - | - | - | - |
| 1787789047 | 0° C | 95% | 1029.9 hPa | - | - | - | - |
| 1787787845 | 0° C | 95% | 1029.8 hPa | - | - | - | - |
| 1787786648 | 0° C | 95% | 1029.8 hPa | - | - | - | - |
| 1787785447 | 0.56° C | 94% | 1029.6 hPa | - | - | - | - |
| 1787784247 | 0.56° C | 94% | 1029.6 hPa | - | - | - | - |
| 1787783046 | 1.11° C | 95% | 1029.6 hPa | - | - | - | - |
| 1787781845 | 1.67° C | 93% | 1029.5 hPa | - | - | - | - |
| 1787780437 | 1.67° C | 93% | 1029.4 hPa | - | - | - | - |
| 1787779446 | 1.67° C | 92% | 1029.3 hPa | - | - | - | - |
* Rain since midnight (hover to see other rain measurements)
** Current wind speed in m/s (hover to see current wind gust speed)